LFBH/LRH METAR and TAF weather

Enter ICAO airport designator
Station Type Date Time Source
LFBH METAR 2019/10/15 18:30 UTC NOAA

LFBH 151830Z AUTO 23011KT 200V260 9999 FEW020 SCT068 BKN150 16/12 Q1014 TEMPO 3000 SHRA BKN015TCU


Station Type Date Time Source
LFBH Decoded METAR 2019/10/15 18:30 UTC NOAA

La Rochelle, France (LFBH) 46-09N 001-09W 10M
Oct 15, 2019 - 02:30 PM EDT / 2019.10.15 1830 UTC
Wind: from the SW (230 degrees) at 13 MPH (11 KT) (direction variable):0
Visibility: greater than 7 mile(s):0
Sky conditions: mostly cloudy
Weather: Towering cumulus clouds observed
Temperature: 60 F (16 C)
Dew Point: 53 F (12 C)
Relative Humidity: 77%
Pressure (altimeter): 29.94 in. Hg (1014 hPa)
ob: LFBH 151830Z AUTO 23011KT 200V260 9999 FEW020 SCT068 BKN150 16/12 Q1014 TEMPO 3000 SHRA BKN015TCU
cycle: 18

Station Type Date Time Source
LFBH TAF 2019/10/15 18:21 UTC NOAA

TAF LFBH 151700Z 1518/1618 20010KT 9999 SCT030
TEMPO 1518/1524 3000 SHRA BKN015TCU
BECMG 1600/1603 19015G25KT -RA BKN014
TEMPO 1606/1612 4000 RA BKN007

Example: see airport list